New Orleans, Louisiana
Traffic Map
Current Weather Conditions
New Orleans, Louisiana
Overcast
Overcast
22°
Feels Like: 22°
Wind Chill: 22° Ceiling: 4800
Heat Index: 22° Visibility: 10mi
Dew Point: 17° Wind: 5mph
Humidity: 75% Direction: 30° (NNE)
Pressure: 29.83in Gusts: 0mph
Raw Report DataKNEW 281553Z 03004KT 10SM OVC048 22/17 A2983 RMK AO2 SLP095 T02170172
Traffic Incident Summary
Active as of:
Severity:
Category:
InformationThere was an issue retrieving the traffic information for this location. Please try a different location or try again shortly.
Advertisements
Track Severe Weather on mobile